createdAt,value
2023-02-11T00:01:48.697Z,24.70
2023-02-11T00:04:17.191Z,24.70
2023-02-11T00:06:45.018Z,24.60
2023-02-11T00:09:12.868Z,24.60
2023-02-11T00:11:40.596Z,24.60
2023-02-11T00:14:08.918Z,24.60
2023-02-11T00:16:38.092Z,24.60
2023-02-11T00:19:06.557Z,24.60
2023-02-11T00:21:35.302Z,24.50
2023-02-11T00:24:03.106Z,24.50
2023-02-11T00:26:32.577Z,24.50
2023-02-11T00:29:00.944Z,24.50
2023-02-11T00:31:29.433Z,24.50
2023-02-11T00:33:58.530Z,24.50
2023-02-11T00:36:28.267Z,24.40
2023-02-11T00:38:57.810Z,24.40
2023-02-11T00:41:26.252Z,24.40
2023-02-11T00:43:56.121Z,24.40
2023-02-11T00:46:24.632Z,24.40
2023-02-11T00:48:55.055Z,24.40
2023-02-11T00:51:24.122Z,24.40
2023-02-11T00:53:52.225Z,24.40
2023-02-11T00:56:19.932Z,24.30
2023-02-11T00:58:47.642Z,24.30
2023-02-11T01:01:16.988Z,24.30
2023-02-11T01:03:45.050Z,24.30
2023-02-11T01:06:13.776Z,24.30
2023-02-11T01:08:42.757Z,24.30
2023-02-11T01:11:14.798Z,24.30
2023-02-11T01:13:43.278Z,24.30
2023-02-11T01:16:12.192Z,24.20
2023-02-11T01:18:41.885Z,24.20
2023-02-11T01:21:09.513Z,24.20
2023-02-11T01:23:40.720Z,24.20
2023-02-11T01:26:09.723Z,24.20
2023-02-11T01:28:37.441Z,24.20
2023-02-11T01:31:05.668Z,24.10
2023-02-11T01:33:33.672Z,24.10
2023-02-11T01:36:02.881Z,24.10
2023-02-11T01:38:31.578Z,24.10
2023-02-11T01:41:02.209Z,24.10
2023-02-11T01:43:34.427Z,24.10
2023-02-11T01:46:14.561Z,24.10
2023-02-11T01:48:45.522Z,24.00
2023-02-11T01:51:17.641Z,24.00
2023-02-11T01:54:04.025Z,24.00
2023-02-11T01:56:50.194Z,24.00
2023-02-11T01:59:23.774Z,24.00
2023-02-11T02:01:57.577Z,24.00
2023-02-11T02:04:31.516Z,24.00
2023-02-11T02:07:04.458Z,24.00
2023-02-11T02:09:38.782Z,23.90
2023-02-11T02:12:06.887Z,23.90
2023-02-11T02:14:39.191Z,23.90
2023-02-11T02:17:06.970Z,23.90
2023-02-11T02:20:12.465Z,23.90
2023-02-11T02:23:06.959Z,23.90
2023-02-11T02:25:57.140Z,23.90
2023-02-11T02:28:46.541Z,23.80
2023-02-11T02:31:29.816Z,23.80
2023-02-11T02:34:03.149Z,23.80
2023-02-11T02:36:38.098Z,23.80
2023-02-11T02:39:09.835Z,23.80
2023-02-11T02:41:40.063Z,23.80
2023-02-11T02:44:09.170Z,23.80
2023-02-11T02:46:37.885Z,23.80
2023-02-11T02:49:14.467Z,23.80
2023-02-11T02:52:08.108Z,23.70
2023-02-11T02:54:59.145Z,23.70
2023-02-11T02:57:33.342Z,23.70
2023-02-11T03:00:13.429Z,23.70
2023-02-11T03:02:50.065Z,23.70
2023-02-11T03:05:24.084Z,23.70
2023-02-11T03:07:57.968Z,23.70
2023-02-11T03:10:29.089Z,23.70
2023-02-11T03:12:58.450Z,23.60
2023-02-11T03:15:29.293Z,23.60
2023-02-11T03:18:00.721Z,23.60
2023-02-11T03:20:32.934Z,23.60
2023-02-11T03:23:07.284Z,23.60
2023-02-11T03:25:39.049Z,23.60
2023-02-11T03:28:14.539Z,23.60
2023-02-11T03:30:48.280Z,23.60
2023-02-11T03:33:24.581Z,23.60
2023-02-11T03:35:57.214Z,23.60
2023-02-11T03:38:30.610Z,23.60
2023-02-11T03:41:00.000Z,23.50
2023-02-11T03:43:31.949Z,23.50
2023-02-11T03:46:01.050Z,23.50
2023-02-11T03:48:32.614Z,23.50
2023-02-11T03:51:06.345Z,23.50
2023-02-11T03:53:34.305Z,23.50
2023-02-11T03:56:05.295Z,23.50
2023-02-11T03:58:32.994Z,23.50
2023-02-11T04:01:02.426Z,23.50
2023-02-11T04:03:31.888Z,23.40
2023-02-11T04:06:01.090Z,23.40
2023-02-11T04:08:28.987Z,23.40
2023-02-11T04:10:56.740Z,23.40
2023-02-11T04:13:24.472Z,23.40
2023-02-11T04:15:52.521Z,23.40
2023-02-11T04:18:20.467Z,23.40
2023-02-11T04:20:48.497Z,23.40
2023-02-11T04:23:17.638Z,23.40
2023-02-11T04:25:45.390Z,23.40
2023-02-11T04:28:13.244Z,23.40
2023-02-11T04:30:41.099Z,23.40
2023-02-11T04:33:08.832Z,23.50
2023-02-11T04:35:36.551Z,23.50
2023-02-11T04:38:04.357Z,23.50
2023-02-11T04:40:33.421Z,23.50
2023-02-11T04:43:01.119Z,23.50
2023-02-11T04:45:28.866Z,23.50
2023-02-11T04:47:56.580Z,23.50
2023-02-11T04:50:24.309Z,23.50
2023-02-11T04:52:52.041Z,23.50
2023-02-11T04:55:20.085Z,23.50
2023-02-11T04:57:49.139Z,23.50
2023-02-11T05:00:17.779Z,23.50
2023-02-11T05:02:45.532Z,23.50
2023-02-11T05:05:13.261Z,23.50
2023-02-11T05:07:41.162Z,23.50
2023-02-11T05:10:09.201Z,23.50
2023-02-11T05:12:36.918Z,23.50
2023-02-11T05:15:07.010Z,23.50
2023-02-11T05:17:34.744Z,23.50
2023-02-11T05:20:02.441Z,23.50
2023-02-11T05:22:30.143Z,23.50
2023-02-11T05:24:57.915Z,23.50
2023-02-11T05:27:25.741Z,23.50
2023-02-11T05:29:53.421Z,23.50
2023-02-11T05:32:22.511Z,23.50
2023-02-11T05:34:50.286Z,23.50
2023-02-11T05:37:18.103Z,23.60
2023-02-11T05:39:45.849Z,23.60
2023-02-11T05:42:14.217Z,23.60
2023-02-11T05:44:41.933Z,23.60
2023-02-11T05:47:09.676Z,23.60
2023-02-11T05:49:38.711Z,23.60
2023-02-11T05:52:06.699Z,23.60
2023-02-11T05:54:34.561Z,23.60
2023-02-11T05:57:02.318Z,23.70
2023-02-11T05:59:30.054Z,23.70
2023-02-11T06:01:57.759Z,23.70
2023-02-11T06:04:25.547Z,23.70
2023-02-11T06:06:54.626Z,23.70
2023-02-11T06:09:22.477Z,23.70
2023-02-11T06:11:50.195Z,23.70
2023-02-11T06:14:17.980Z,23.80
2023-02-11T06:16:45.820Z,23.80
2023-02-11T06:19:13.802Z,23.80
2023-02-11T06:21:44.150Z,23.80
2023-02-11T06:24:13.622Z,23.80
2023-02-11T06:26:41.396Z,23.80
2023-02-11T06:29:09.312Z,23.80
2023-02-11T06:31:39.043Z,23.80
2023-02-11T06:34:07.176Z,23.80
2023-02-11T06:36:35.155Z,23.90
2023-02-11T06:39:03.240Z,23.90
2023-02-11T06:41:32.409Z,23.90
2023-02-11T06:44:00.262Z,23.90
2023-02-11T06:46:27.983Z,23.90
2023-02-11T06:48:55.893Z,23.90
2023-02-11T06:51:23.664Z,23.90
2023-02-11T06:53:51.379Z,23.90
2023-02-11T06:56:20.915Z,23.90
2023-02-11T06:58:54.665Z,24.00
2023-02-11T07:01:23.756Z,24.00
2023-02-11T07:03:52.515Z,24.00
2023-02-11T07:06:22.578Z,24.00
2023-02-11T07:08:50.432Z,24.00
2023-02-11T07:11:20.918Z,24.00
2023-02-11T07:13:50.079Z,24.00
2023-02-11T07:16:20.234Z,24.10
2023-02-11T07:18:49.425Z,24.10
2023-02-11T07:21:19.658Z,24.10
2023-02-11T07:23:48.478Z,24.10
2023-02-11T07:26:17.970Z,24.10
2023-02-11T07:28:46.559Z,24.20
2023-02-11T07:31:17.807Z,24.20
2023-02-11T07:33:46.793Z,24.20
2023-02-11T07:36:16.315Z,24.20
2023-02-11T07:38:44.363Z,24.20
2023-02-11T07:41:15.066Z,24.30
2023-02-11T07:43:43.478Z,24.30
2023-02-11T07:46:14.655Z,24.30
2023-02-11T07:48:44.183Z,24.40
2023-02-11T07:51:15.301Z,24.40
2023-02-11T07:53:43.093Z,24.40
2023-02-11T07:56:12.006Z,24.50
2023-02-11T07:58:42.097Z,24.50
2023-02-11T08:01:11.456Z,24.50
2023-02-11T08:03:40.065Z,24.60
2023-02-11T08:06:11.489Z,24.60
2023-02-11T08:08:39.256Z,24.60
2023-02-11T08:11:08.795Z,24.70
2023-02-11T08:13:36.645Z,24.70
2023-02-11T08:16:06.966Z,24.70
2023-02-11T08:18:35.726Z,24.70
2023-02-11T08:21:06.584Z,24.80
2023-02-11T08:23:37.323Z,24.80
2023-02-11T08:26:12.387Z,24.80
2023-02-11T08:28:41.645Z,24.80
2023-02-11T08:31:11.782Z,24.80
2023-02-11T08:33:41.186Z,24.90
2023-02-11T08:36:10.454Z,24.90
2023-02-11T08:38:39.684Z,24.90
2023-02-11T08:41:07.919Z,24.90
2023-02-11T08:43:36.199Z,24.90
2023-02-11T08:46:04.975Z,24.90
2023-02-11T08:48:32.691Z,25.00
2023-02-11T08:51:00.678Z,25.00
2023-02-11T08:53:28.410Z,25.00
2023-02-11T08:55:57.466Z,25.00
2023-02-11T08:58:25.199Z,25.00
2023-02-11T09:00:53.406Z,25.10
2023-02-11T09:03:21.420Z,25.10
2023-02-11T09:05:53.114Z,25.10
2023-02-11T09:08:21.943Z,25.10
2023-02-11T09:10:50.165Z,25.10
2023-02-11T09:13:19.600Z,25.10
2023-02-11T09:15:47.565Z,25.10
2023-02-11T09:18:15.505Z,25.20
2023-02-11T09:20:43.284Z,25.20
2023-02-11T09:23:11.254Z,25.20
2023-02-11T09:25:40.306Z,25.20
2023-02-11T09:28:08.422Z,25.20
2023-02-11T09:30:38.660Z,25.30
2023-02-11T09:33:06.444Z,25.30
2023-02-11T09:35:34.952Z,25.30
2023-02-11T09:38:02.778Z,25.40
2023-02-11T09:40:30.529Z,25.40
2023-02-11T09:43:04.313Z,25.40
2023-02-11T09:45:33.042Z,25.50
2023-02-11T09:48:06.582Z,25.50
2023-02-11T09:50:37.318Z,25.50
2023-02-11T09:53:11.792Z,25.60
2023-02-11T09:55:43.360Z,25.60
2023-02-11T09:58:15.078Z,25.70
2023-02-11T10:00:47.978Z,25.70
2023-02-11T10:03:48.396Z,25.80
2023-02-11T10:06:39.581Z,25.80
2023-02-11T10:09:22.167Z,25.80
2023-02-11T10:11:56.779Z,25.90
2023-02-11T10:14:40.236Z,25.90
2023-02-11T10:17:18.068Z,25.90
2023-02-11T10:20:04.137Z,25.90
2023-02-11T10:22:37.753Z,25.90
2023-02-11T10:25:19.470Z,26.00
2023-02-11T10:27:47.265Z,26.00
2023-02-11T10:30:23.042Z,26.00
2023-02-11T10:32:55.665Z,26.10
2023-02-11T10:35:27.219Z,26.10
2023-02-11T10:37:56.943Z,26.10
2023-02-11T10:40:27.049Z,26.20
2023-02-11T10:42:57.231Z,26.20
2023-02-11T10:45:31.494Z,26.30
2023-02-11T10:47:59.649Z,26.30
2023-02-11T10:50:30.372Z,26.30
2023-02-11T10:53:14.617Z,26.40
2023-02-11T10:55:51.578Z,26.40
2023-02-11T10:58:27.521Z,26.50
2023-02-11T11:00:57.968Z,26.50
2023-02-11T11:03:28.073Z,26.50
2023-02-11T11:05:58.814Z,26.50
2023-02-11T11:08:42.262Z,26.50
2023-02-11T11:11:11.614Z,26.50
2023-02-11T11:13:40.924Z,26.60
2023-02-11T11:16:19.576Z,26.60
2023-02-11T11:18:48.878Z,26.60
2023-02-11T11:21:20.302Z,26.60
2023-02-11T11:23:52.427Z,26.60
2023-02-11T11:26:20.730Z,26.60
2023-02-11T11:28:58.252Z,26.60
2023-02-11T11:31:30.809Z,26.60
2023-02-11T11:34:00.860Z,26.60
2023-02-11T11:36:36.919Z,26.60
2023-02-11T11:39:23.444Z,26.60
2023-02-11T11:41:56.920Z,26.60
2023-02-11T11:44:27.958Z,26.60
2023-02-11T11:47:16.697Z,26.60
2023-02-11T11:49:49.849Z,26.60
2023-02-11T11:52:24.440Z,26.60
2023-02-11T11:55:00.162Z,26.60
2023-02-11T11:57:30.705Z,26.50
2023-02-11T11:59:59.196Z,26.50
2023-02-11T12:02:57.475Z,26.50
2023-02-11T12:05:28.885Z,26.50
2023-02-11T12:08:09.438Z,26.50
2023-02-11T12:10:51.450Z,26.50
2023-02-11T12:13:29.717Z,26.50
2023-02-11T12:16:07.758Z,26.50
2023-02-11T12:18:48.611Z,26.50
2023-02-11T12:21:30.890Z,26.50
2023-02-11T12:24:16.279Z,26.50
2023-02-11T12:26:50.699Z,26.50
2023-02-11T12:29:28.858Z,26.50
2023-02-11T12:32:08.858Z,26.50
2023-02-11T12:34:49.128Z,26.40
2023-02-11T12:37:29.700Z,26.40
2023-02-11T12:40:04.401Z,26.40
2023-02-11T12:43:03.602Z,26.40
2023-02-11T12:45:50.575Z,26.40
2023-02-11T12:48:35.406Z,26.40
2023-02-11T12:51:11.035Z,26.40
2023-02-11T12:53:52.181Z,26.40
2023-02-11T12:56:25.208Z,26.40
2023-02-11T12:58:56.651Z,26.40
2023-02-11T13:01:28.776Z,26.40
2023-02-11T13:04:01.126Z,26.40
2023-02-11T13:06:32.015Z,26.40
2023-02-11T13:09:03.327Z,26.40
2023-02-11T13:11:38.608Z,26.40
2023-02-11T13:14:16.210Z,26.40
2023-02-11T13:16:46.678Z,26.40
2023-02-11T13:19:22.503Z,26.50
2023-02-11T13:22:13.660Z,26.50
2023-02-11T13:24:45.367Z,26.40
2023-02-11T13:27:26.042Z,26.50
2023-02-11T13:30:21.479Z,26.50
2023-02-11T13:33:21.036Z,26.50
2023-02-11T13:36:20.196Z,26.40
2023-02-11T13:39:02.197Z,26.40
2023-02-11T13:41:33.413Z,26.40
2023-02-11T13:44:07.610Z,26.40
2023-02-11T13:46:53.996Z,26.40
2023-02-11T13:49:24.458Z,26.40
2023-02-11T13:51:53.827Z,26.40
2023-02-11T13:54:27.189Z,26.40
2023-02-11T13:57:26.339Z,26.40
2023-02-11T13:59:55.687Z,26.40
2023-02-11T14:02:49.798Z,26.40
2023-02-11T14:05:43.175Z,26.30
2023-02-11T14:08:40.538Z,26.30
2023-02-11T14:11:14.397Z,26.30
2023-02-11T14:14:13.865Z,26.20
2023-02-11T14:17:14.093Z,26.20
2023-02-11T14:19:45.154Z,26.20
2023-02-11T14:22:16.609Z,26.20
2023-02-11T14:24:51.118Z,26.10
2023-02-11T14:27:26.635Z,26.10
2023-02-11T14:30:07.861Z,26.10
2023-02-11T14:32:48.246Z,26.10
2023-02-11T14:35:29.103Z,26.10
2023-02-11T14:38:06.125Z,26.10
2023-02-11T14:40:40.971Z,26.10
2023-02-11T14:43:19.813Z,26.10
2023-02-11T14:45:51.950Z,26.10
2023-02-11T14:48:21.616Z,26.10
2023-02-11T14:51:08.121Z,26.10
2023-02-11T14:53:37.287Z,26.10
2023-02-11T14:56:18.197Z,26.10
2023-02-11T14:58:48.213Z,26.00
2023-02-11T15:01:32.122Z,26.00
2023-02-11T15:04:01.375Z,26.00
2023-02-11T15:06:33.443Z,26.00
2023-02-11T15:09:05.083Z,26.00
2023-02-11T15:11:45.694Z,26.00
2023-02-11T15:14:20.244Z,26.00
2023-02-11T15:16:48.472Z,26.00
2023-02-11T15:19:24.157Z,26.00
2023-02-11T15:21:54.676Z,26.00
2023-02-11T15:24:26.202Z,26.00
2023-02-11T15:26:58.238Z,26.00
2023-02-11T15:29:26.915Z,26.00
2023-02-11T15:32:13.373Z,25.90
2023-02-11T15:34:41.467Z,25.90
2023-02-11T15:37:14.517Z,25.90
2023-02-11T15:39:43.358Z,25.90
2023-02-11T15:42:18.780Z,25.90
2023-02-11T15:44:50.568Z,25.90
2023-02-11T15:47:23.909Z,25.90
2023-02-11T15:49:51.908Z,25.90
2023-02-11T15:52:26.991Z,25.90
2023-02-11T15:54:57.283Z,25.90
2023-02-11T15:57:25.054Z,25.90
2023-02-11T15:59:55.320Z,25.80
2023-02-11T16:02:29.412Z,25.80
2023-02-11T16:04:58.822Z,25.80
2023-02-11T16:07:43.233Z,25.80
2023-02-11T16:10:22.769Z,25.80
2023-02-11T16:13:03.045Z,25.80
2023-02-11T16:15:43.440Z,25.80
2023-02-11T16:18:47.119Z,25.80
2023-02-11T16:21:19.509Z,25.80
2023-02-11T16:23:54.526Z,25.80
2023-02-11T16:26:26.077Z,25.80
2023-02-11T16:28:54.922Z,25.80
2023-02-11T16:31:22.820Z,25.80
2023-02-11T16:33:51.160Z,25.80
2023-02-11T16:36:18.940Z,25.80
2023-02-11T16:38:46.748Z,25.80
2023-02-11T16:41:15.970Z,25.80
2023-02-11T16:43:43.731Z,25.80
2023-02-11T16:46:15.198Z,25.80
2023-02-11T16:48:43.082Z,25.80
2023-02-11T16:51:12.940Z,25.80
2023-02-11T16:53:40.817Z,25.80
2023-02-11T16:56:16.710Z,25.80
2023-02-11T16:58:44.918Z,25.80
2023-02-11T17:01:14.177Z,25.80
2023-02-11T17:03:43.774Z,25.80
2023-02-11T17:06:12.609Z,25.80
2023-02-11T17:08:41.412Z,25.80
2023-02-11T17:11:09.178Z,25.80
2023-02-11T17:13:39.536Z,25.80
2023-02-11T17:16:11.131Z,25.80
2023-02-11T17:18:39.151Z,25.80
2023-02-11T17:21:07.823Z,25.80
2023-02-11T17:23:35.598Z,25.80
2023-02-11T17:26:03.311Z,25.80
2023-02-11T17:28:32.421Z,25.80
2023-02-11T17:31:01.970Z,25.80
2023-02-11T17:33:29.760Z,25.80
2023-02-11T17:35:57.474Z,25.80
2023-02-11T17:38:25.201Z,25.80
2023-02-11T17:40:59.136Z,25.80
2023-02-11T17:43:27.060Z,25.80
2023-02-11T17:45:54.989Z,25.80
2023-02-11T17:48:24.595Z,25.80
2023-02-11T17:50:52.472Z,25.80
2023-02-11T17:53:20.167Z,25.80
2023-02-11T17:55:47.896Z,25.80
2023-02-11T17:58:15.957Z,25.70
2023-02-11T18:00:44.046Z,25.70
2023-02-11T18:03:11.975Z,25.70
2023-02-11T18:05:41.076Z,25.70
2023-02-11T18:08:09.138Z,25.70
2023-02-11T18:10:37.000Z,25.70
2023-02-11T18:13:04.685Z,25.70
2023-02-11T18:15:34.358Z,25.70
2023-02-11T18:18:04.232Z,25.70
2023-02-11T18:20:32.157Z,25.70
2023-02-11T18:23:01.221Z,25.70
2023-02-11T18:25:29.974Z,25.70
2023-02-11T18:27:57.745Z,25.70
2023-02-11T18:30:25.847Z,25.70
2023-02-11T18:32:55.237Z,25.70
2023-02-11T18:35:23.376Z,25.70
2023-02-11T18:37:52.283Z,25.70
2023-02-11T18:40:21.729Z,25.70
2023-02-11T18:42:49.456Z,25.80
2023-02-11T18:45:17.169Z,25.80
2023-02-11T18:47:44.864Z,25.80
2023-02-11T18:50:15.629Z,25.80
2023-02-11T18:52:43.825Z,25.80
2023-02-11T18:55:11.544Z,25.80
2023-02-11T18:57:40.589Z,25.80
2023-02-11T19:00:10.102Z,25.80
2023-02-11T19:02:37.931Z,25.80
2023-02-11T19:05:06.415Z,25.80
2023-02-11T19:07:34.126Z,25.80
2023-02-11T19:10:01.860Z,25.70
2023-02-11T19:12:29.529Z,25.70
2023-02-11T19:15:00.499Z,25.70
2023-02-11T19:17:28.611Z,25.70
2023-02-11T19:19:56.812Z,25.70
2023-02-11T19:22:24.562Z,25.70
2023-02-11T19:24:52.271Z,25.70
2023-02-11T19:27:19.988Z,25.70
2023-02-11T19:29:47.901Z,25.70
2023-02-11T19:32:17.151Z,25.70
2023-02-11T19:34:44.849Z,25.70
2023-02-11T19:37:13.870Z,25.70
2023-02-11T19:39:42.295Z,25.70
2023-02-11T19:42:12.462Z,25.70
2023-02-11T19:44:40.314Z,25.70
2023-02-11T19:47:08.159Z,25.70
2023-02-11T19:49:37.383Z,25.70
2023-02-11T19:52:05.499Z,25.70
2023-02-11T19:54:33.215Z,25.70
2023-02-11T19:57:00.955Z,25.70
2023-02-11T19:59:28.693Z,25.70
2023-02-11T20:01:57.630Z,25.70
2023-02-11T20:04:25.747Z,25.70
2023-02-11T20:06:55.023Z,25.70
2023-02-11T20:09:22.819Z,25.70
2023-02-11T20:11:51.047Z,25.60
2023-02-11T20:14:19.248Z,25.60
2023-02-11T20:16:49.736Z,25.60
2023-02-11T20:19:22.144Z,25.60
2023-02-11T20:21:53.746Z,25.60
2023-02-11T20:24:23.749Z,25.60
2023-02-11T20:26:55.537Z,25.60
2023-02-11T20:29:24.491Z,25.60
2023-02-11T20:31:52.506Z,25.60
2023-02-11T20:34:21.716Z,25.60
2023-02-11T20:36:52.065Z,25.60
2023-02-11T20:39:22.165Z,25.60
2023-02-11T20:41:52.414Z,25.60
2023-02-11T20:44:21.781Z,25.60
2023-02-11T20:46:50.499Z,25.60
2023-02-11T20:49:21.611Z,25.60
2023-02-11T20:51:51.302Z,25.60
2023-02-11T20:54:26.349Z,25.60
2023-02-11T20:56:56.909Z,25.50
2023-02-11T20:59:25.103Z,25.50
2023-02-11T21:01:55.381Z,25.50
2023-02-11T21:04:25.864Z,25.50
2023-02-11T21:06:56.289Z,25.50
2023-02-11T21:09:27.013Z,25.50
2023-02-11T21:11:56.283Z,25.50
2023-02-11T21:14:25.568Z,25.50
2023-02-11T21:16:53.595Z,25.50
2023-02-11T21:19:21.715Z,25.50
2023-02-11T21:21:49.613Z,25.50
2023-02-11T21:24:17.371Z,25.50
2023-02-11T21:26:45.144Z,25.50
2023-02-11T21:29:14.286Z,25.50
2023-02-11T21:31:42.213Z,25.50
2023-02-11T21:34:12.182Z,25.50
2023-02-11T21:36:39.992Z,25.50
2023-02-11T21:39:08.812Z,25.50
2023-02-11T21:41:36.576Z,25.50
2023-02-11T21:44:04.307Z,25.50
2023-02-11T21:46:33.724Z,25.50
2023-02-11T21:49:01.582Z,25.50
2023-02-11T21:51:29.630Z,25.50
2023-02-11T21:53:59.126Z,25.40
2023-02-11T21:56:28.171Z,25.40
2023-02-11T21:58:58.363Z,25.50
2023-02-11T22:01:28.392Z,25.40
2023-02-11T22:03:58.024Z,25.40
2023-02-11T22:06:27.895Z,25.40
2023-02-11T22:08:56.717Z,25.40
2023-02-11T22:11:24.840Z,25.40
2023-02-11T22:13:54.782Z,25.40
2023-02-11T22:16:23.051Z,25.40
2023-02-11T22:18:51.531Z,25.40
2023-02-11T22:21:23.101Z,25.40
2023-02-11T22:23:51.927Z,25.40
2023-02-11T22:26:21.988Z,25.40
2023-02-11T22:28:50.652Z,25.40
2023-02-11T22:31:20.060Z,25.40
2023-02-11T22:33:48.213Z,25.40
2023-02-11T22:36:18.950Z,25.40
2023-02-11T22:38:49.118Z,25.40
2023-02-11T22:41:17.542Z,25.40
2023-02-11T22:43:45.752Z,25.40
2023-02-11T22:46:15.607Z,25.40
2023-02-11T22:48:44.015Z,25.40
2023-02-11T22:51:14.588Z,25.40
2023-02-11T22:53:43.649Z,25.30
2023-02-11T22:56:15.837Z,25.30
2023-02-11T22:58:44.119Z,25.30
2023-02-11T23:01:12.724Z,25.30
2023-02-11T23:03:41.178Z,25.30
2023-02-11T23:06:09.941Z,25.30
2023-02-11T23:08:39.276Z,25.30
2023-02-11T23:11:08.569Z,25.30
2023-02-11T23:13:39.405Z,25.30
2023-02-11T23:16:12.098Z,25.30
2023-02-11T23:18:41.626Z,25.30
2023-02-11T23:21:12.674Z,25.30
2023-02-11T23:23:41.205Z,25.30
2023-02-11T23:26:11.719Z,25.30
2023-02-11T23:28:41.346Z,25.30
2023-02-11T23:31:17.664Z,25.30
2023-02-11T23:33:46.014Z,25.30
2023-02-11T23:36:14.450Z,25.20
2023-02-11T23:38:42.677Z,25.20
2023-02-11T23:41:10.860Z,25.20
2023-02-11T23:43:38.880Z,25.20
2023-02-11T23:46:09.058Z,25.20
2023-02-11T23:48:37.877Z,25.20
2023-02-11T23:51:06.472Z,25.20
2023-02-11T23:53:34.416Z,25.20
2023-02-11T23:56:02.442Z,25.20
2023-02-11T23:58:30.625Z,25.20
